ESNX

Arvidsjaur Airport

Arvidsjaur, Sweden
METAR ESNX 181320Z 00000KT CAVOK M27/M30 Q0994
Observed Flight Rules
Jan-18 @ 13:20 UTC (29 minutes ago) Visual Flight Rules
Visibility Clouds
10,000+ meters
  • Clear skies
Temperatures Readings
Current -27°C / -17°F
Dewpoint -30°C / -22°F
Humidity 76%
Altimeter 29.35" Hg
Pressure 993.92 hPa
Elevation 379
METAR ESNX 181320Z 00000KT CAVOK M27/M30 Q0994
Observed Flight Rules
Jan-18 @ 13:20 UTC
(29 minutes ago)
VFR
Clouds
  • Clear skies
Temperature Dewpoint
-27°C / -17°F -30°C / -22°F
Humidity Altimeter Pressure
76% 29.35" Hg 993.92 hPa